SBPV/PVH METAR and TAF weather

Enter ICAO airport designator
Station Type Date Time Source
SBPV METAR 2022/12/04 12:00 UTC NOAA

SBPV 041200Z 26002KT CAVOK 25/23 Q1008


Station Type Date Time Source
SBPV Decoded METAR 2022/12/04 12:00 UTC NOAA

Porto Velho Aeroporto , Brazil (SBPV) 08-46S 063-55W 102M
Dec 04, 2022 - 07:00 AM EST / 2022.12.04 1200 UTC
Wind: from the W (260 degrees) at 2 MPH (2 KT):0
Visibility: greater than 7 mile(s):0
Temperature: 77 F (25 C)
Dew Point: 73 F (23 C)
Relative Humidity: 88%
Pressure (altimeter): 29.77 in. Hg (1008 hPa)
ob: SBPV 041200Z 26002KT CAVOK 25/23 Q1008
cycle: 12

Station Type Date Time Source
SBPV TAF 2022/12/04 12:53 UTC NOAA

TAF SBPV 040850Z 0412/0512 23003KT 9999 BKN017 TX30/0418Z TN23/0509Z
BECMG 0414/0416 33007KT 5000 SHRA BKN025 FEW035TCU
TEMPO 0418/0421 19012KT 4000 TSRA BKN015 FEW030CB
BECMG 0422/0424 33003KT 9999 NSW SCT015 FEW030TCU
TEMPO 0500/0506 28005KT 4000 TSRA BKN015 FEW030CB
RMK PGU

Example: see airport list